Aviation Digital Data Service (ADDS)

Output produced by METARs form (2117 UTC 16 February 2019)
found at http://www.aviationweather.gov/metar/data/
 
METAR text: PTYA 162051Z VRB04KT 12SM SCT016 SCT130 BKN300 26/23 A2991 RMK SLP129 8/171 T02630231 52007
Conditions at: PTYA (YAP ISLAND , FM) observed 2051 UTC 16 February 2019
Temperature: 26.3°C (79°F)
Dewpoint: 23.1°C (74°F) [RH = 83%]
Pressure (altimeter): 29.91 inches Hg (1013.0 mb)
[Sea-level pressure: 1012.9 mb]
Winds: variable direction winds at 5 MPH (4 knots; 2.1 m/s)
Visibility: 12 miles (19 km)
Ceiling: 30000 feet AGL
Clouds: scattered clouds at 1600 feet AGL
scattered clouds at 13000 feet AGL
broken clouds at 30000 feet AGL
Weather: no significant weather observed at this time

METAR text: PTYA 161953Z VRB04KT 12SM FEW016 BKN300 26/23 A2988 RMK SLP120 T02560226
Conditions at: PTYA (YAP ISLAND , FM) observed 1953 UTC 16 February 2019
Temperature: 25.6°C (78°F)
Dewpoint: 22.6°C (73°F) [RH = 84%]
Pressure (altimeter): 29.88 inches Hg (1011.9 mb)
[Sea-level pressure: 1012.0 mb]
Winds: variable direction winds at 5 MPH (4 knots; 2.1 m/s)
Visibility: 12 miles (19 km)
Ceiling: 30000 feet AGL
Clouds: few clouds at 1600 feet AGL
broken clouds at 30000 feet AGL
Weather: no significant weather observed at this time

METAR text: PTYA 161853Z VRB05KT 12SM FEW016 SCT300 26/22 A2988 RMK SLP118 T02550220
Conditions at: PTYA (YAP ISLAND , FM) observed 1853 UTC 16 February 2019
Temperature: 25.5°C (78°F)
Dewpoint: 22.0°C (72°F) [RH = 81%]
Pressure (altimeter): 29.88 inches Hg (1011.9 mb)
[Sea-level pressure: 1011.8 mb]
Winds: variable direction winds at 6 MPH (5 knots; 2.6 m/s)
Visibility: 12 miles (19 km)
Ceiling: at least 12,000 feet AGL
Clouds: few clouds at 1600 feet AGL
scattered clouds at 30000 feet AGL
Weather: no significant weather observed at this time

METAR text: PTYA 161750Z VRB06KT 12SM FEW016 SCT300 26/22 A2989 RMK SLP122 8/101 T02590224 10266 20259 57015
Conditions at: PTYA (YAP ISLAND , FM) observed 1750 UTC 16 February 2019
Temperature: 25.9°C (79°F)
Dewpoint: 22.4°C (72°F) [RH = 81%]
Pressure (altimeter): 29.89 inches Hg (1012.3 mb)
[Sea-level pressure: 1012.2 mb]
Winds: variable direction winds at 7 MPH (6 knots; 3.1 m/s)
Visibility: 12 miles (19 km)
Ceiling: at least 12,000 feet AGL
Clouds: few clouds at 1600 feet AGL
scattered clouds at 30000 feet AGL
Weather: no significant weather observed at this time

METAR text: PTYA 161652Z VRB04KT 12SM FEW016 SCT300 26/22 A2990 RMK SLP127 T02600222
Conditions at: PTYA (YAP ISLAND , FM) observed 1652 UTC 16 February 2019
Temperature: 26.0°C (79°F)
Dewpoint: 22.2°C (72°F) [RH = 80%]
Pressure (altimeter): 29.90 inches Hg (1012.6 mb)
[Sea-level pressure: 1012.7 mb]
Winds: variable direction winds at 5 MPH (4 knots; 2.1 m/s)
Visibility: 12 miles (19 km)
Ceiling: at least 12,000 feet AGL
Clouds: few clouds at 1600 feet AGL
scattered clouds at 30000 feet AGL
Weather: no significant weather observed at this time

METAR text: PTYA 161551Z VRB06KT 12SM FEW016 SCT300 26/22 A2991 RMK SLP130 T02630222
Conditions at: PTYA (YAP ISLAND , FM) observed 1551 UTC 16 February 2019
Temperature: 26.3°C (79°F)
Dewpoint: 22.2°C (72°F) [RH = 78%]
Pressure (altimeter): 29.91 inches Hg (1013.0 mb)
[Sea-level pressure: 1013.0 mb]
Winds: variable direction winds at 7 MPH (6 knots; 3.1 m/s)
Visibility: 12 miles (19 km)
Ceiling: at least 12,000 feet AGL
Clouds: few clouds at 1600 feet AGL
scattered clouds at 30000 feet AGL
Weather: no significant weather observed at this time

METAR text: PTYA 161450Z VRB05KT 12SM FEW016 SCT300 27/22 A2993 RMK SLP137 8/101 T02660220 403150266 57002
Conditions at: PTYA (YAP ISLAND , FM) observed 1450 UTC 16 February 2019
Temperature: 26.6°C (80°F)
Dewpoint: 22.0°C (72°F) [RH = 76%]
Pressure (altimeter): 29.93 inches Hg (1013.6 mb)
[Sea-level pressure: 1013.7 mb]
Winds: variable direction winds at 6 MPH (5 knots; 2.6 m/s)
Visibility: 12 miles (19 km)
Ceiling: at least 12,000 feet AGL
Clouds: few clouds at 1600 feet AGL
scattered clouds at 30000 feet AGL
Weather: no significant weather observed at this time

METAR text: PTYA 161352Z VRB03KT 12SM FEW016 SCT130 BKN300 27/22 A2994 RMK SLP140 T02650224
Conditions at: PTYA (YAP ISLAND , FM) observed 1352 UTC 16 February 2019
Temperature: 26.5°C (80°F)
Dewpoint: 22.4°C (72°F) [RH = 78%]
Pressure (altimeter): 29.94 inches Hg (1014.0 mb)
[Sea-level pressure: 1014.0 mb]
Winds: variable direction winds at 3 MPH (3 knots; 1.5 m/s)
Visibility: 12 miles (19 km)
Ceiling: 30000 feet AGL
Clouds: few clouds at 1600 feet AGL
scattered clouds at 13000 feet AGL
broken clouds at 30000 feet AGL
Weather: no significant weather observed at this time

METAR text: PTYA 161251Z VRB03KT 12SM FEW016 SCT130 BKN300 26/23 A2994 RMK SLP140 T02640225
Conditions at: PTYA (YAP ISLAND , FM) observed 1251 UTC 16 February 2019
Temperature: 26.4°C (80°F)
Dewpoint: 22.5°C (72°F) [RH = 79%]
Pressure (altimeter): 29.94 inches Hg (1014.0 mb)
[Sea-level pressure: 1014.0 mb]
Winds: variable direction winds at 3 MPH (3 knots; 1.5 m/s)
Visibility: 12 miles (19 km)
Ceiling: 30000 feet AGL
Clouds: few clouds at 1600 feet AGL
scattered clouds at 13000 feet AGL
broken clouds at 30000 feet AGL
Weather: no significant weather observed at this time

METAR text: PTYA 161151Z VRB04KT 12SM FEW016 SCT130 BKN300 27/22 A2994 RMK SLP139 8/171 T02660224 10309 20266 52015
Conditions at: PTYA (YAP ISLAND , FM) observed 1151 UTC 16 February 2019
Temperature: 26.6°C (80°F)
Dewpoint: 22.4°C (72°F) [RH = 78%]
Pressure (altimeter): 29.94 inches Hg (1014.0 mb)
[Sea-level pressure: 1013.9 mb]
Winds: variable direction winds at 5 MPH (4 knots; 2.1 m/s)
Visibility: 12 miles (19 km)
Ceiling: 30000 feet AGL
Clouds: few clouds at 1600 feet AGL
scattered clouds at 13000 feet AGL
broken clouds at 30000 feet AGL
Weather: no significant weather observed at this time

METAR text: PTYA 161051Z 04008KT 12SM FEW016 SCT130 BKN300 27/23 A2992 RMK SLP134 T02720227
Conditions at: PTYA (YAP ISLAND , FM) observed 1051 UTC 16 February 2019
Temperature: 27.2°C (81°F)
Dewpoint: 22.7°C (73°F) [RH = 76%]
Pressure (altimeter): 29.92 inches Hg (1013.3 mb)
[Sea-level pressure: 1013.4 mb]
Winds: from the NE (40 degrees) at 9 MPH (8 knots; 4.1 m/s)
Visibility: 12 miles (19 km)
Ceiling: 30000 feet AGL
Clouds: few clouds at 1600 feet AGL
scattered clouds at 13000 feet AGL
broken clouds at 30000 feet AGL
Weather: no significant weather observed at this time

METAR text: PTYA 160953Z 04010KT 12SM FEW016 SCT130 BKN300 28/23 A2991 RMK SLP130 T02770230
Conditions at: PTYA (YAP ISLAND , FM) observed 0953 UTC 16 February 2019
Temperature: 27.7°C (82°F)
Dewpoint: 23.0°C (73°F) [RH = 76%]
Pressure (altimeter): 29.91 inches Hg (1013.0 mb)
[Sea-level pressure: 1013.0 mb]
Winds: from the NE (40 degrees) at 12 MPH (10 knots; 5.1 m/s)
Visibility: 12 miles (19 km)
Ceiling: 30000 feet AGL
Clouds: few clouds at 1600 feet AGL
scattered clouds at 13000 feet AGL
broken clouds at 30000 feet AGL
Weather: no significant weather observed at this time

METAR text: PTYA 160851Z 04009KT 12SM FEW016 SCT130 BKN300 28/23 A2989 RMK SLP123 8/171 T02810233 53003
Conditions at: PTYA (YAP ISLAND , FM) observed 0851 UTC 16 February 2019
Temperature: 28.1°C (83°F)
Dewpoint: 23.3°C (74°F) [RH = 75%]
Pressure (altimeter): 29.89 inches Hg (1012.3 mb)
[Sea-level pressure: 1012.3 mb]
Winds: from the NE (40 degrees) at 10 MPH (9 knots; 4.6 m/s)
Visibility: 12 miles (19 km)
Ceiling: 30000 feet AGL
Clouds: few clouds at 1600 feet AGL
scattered clouds at 13000 feet AGL
broken clouds at 30000 feet AGL
Weather: no significant weather observed at this time

METAR text: PTYA 160755Z 04010KT 12SM FEW018 SCT130 BKN300 29/24 A2987 RMK SLP117 T02890235
Conditions at: PTYA (YAP ISLAND , FM) observed 0755 UTC 16 February 2019
Temperature: 28.9°C (84°F)
Dewpoint: 23.5°C (74°F) [RH = 73%]
Pressure (altimeter): 29.87 inches Hg (1011.6 mb)
[Sea-level pressure: 1011.7 mb]
Winds: from the NE (40 degrees) at 12 MPH (10 knots; 5.1 m/s)
Visibility: 12 miles (19 km)
Ceiling: 30000 feet AGL
Clouds: few clouds at 1800 feet AGL
scattered clouds at 13000 feet AGL
broken clouds at 30000 feet AGL
Weather: no significant weather observed at this time

METAR text: PTYA 160650Z 06013G18KT 12SM FEW018 SCT130 BKN300 30/23 A2989 RMK SLP122 T02980229
Conditions at: PTYA (YAP ISLAND , FM) observed 0650 UTC 16 February 2019
Temperature: 29.8°C (86°F)
Dewpoint: 22.9°C (73°F) [RH = 67%]
Pressure (altimeter): 29.89 inches Hg (1012.3 mb)
[Sea-level pressure: 1012.2 mb]
Winds: from the ENE (60 degrees) at 15 MPH (13 knots; 6.7 m/s)
gusting to 21 MPH (18 knots; 9.3 m/s)
Visibility: 12 miles (19 km)
Ceiling: 30000 feet AGL
Clouds: few clouds at 1800 feet AGL
scattered clouds at 13000 feet AGL
broken clouds at 30000 feet AGL
Weather: no significant weather observed at this time

METAR text: PTYA 160550Z 05010KT 12SM FEW018 SCT300 31/23 A2988 RMK SLP120 8/101 T03090232 10315 20291 58014
Conditions at: PTYA (YAP ISLAND , FM) observed 0550 UTC 16 February 2019
Temperature: 30.9°C (88°F)
Dewpoint: 23.2°C (74°F) [RH = 64%]
Pressure (altimeter): 29.88 inches Hg (1011.9 mb)
[Sea-level pressure: 1012.0 mb]
Winds: from the NE (50 degrees) at 12 MPH (10 knots; 5.1 m/s)
Visibility: 12 miles (19 km)
Ceiling: at least 12,000 feet AGL
Clouds: few clouds at 1800 feet AGL
scattered clouds at 30000 feet AGL
Weather: no significant weather observed at this time

METAR text: PTYA 160450Z 05013G20KT 12SM FEW018 BKN300 30/23 A2990 RMK SLP127 T02960233
Conditions at: PTYA (YAP ISLAND , FM) observed 0450 UTC 16 February 2019
Temperature: 29.6°C (85°F)
Dewpoint: 23.3°C (74°F) [RH = 69%]
Pressure (altimeter): 29.90 inches Hg (1012.6 mb)
[Sea-level pressure: 1012.7 mb]
Winds: from the NE (50 degrees) at 15 MPH (13 knots; 6.7 m/s)
gusting to 23 MPH (20 knots; 10.3 m/s)
Visibility: 12 miles (19 km)
Ceiling: 30000 feet AGL
Clouds: few clouds at 1800 feet AGL
broken clouds at 30000 feet AGL
Weather: no significant weather observed at this time

METAR text: PTYA 160350Z 08011KT 12SM FEW018 SCT300 31/24 A2993 RMK SLP137 T03100238
Conditions at: PTYA (YAP ISLAND , FM) observed 0350 UTC 16 February 2019
Temperature: 31.0°C (88°F)
Dewpoint: 23.8°C (75°F) [RH = 66%]
Pressure (altimeter): 29.93 inches Hg (1013.6 mb)
[Sea-level pressure: 1013.7 mb]
Winds: from the E (80 degrees) at 13 MPH (11 knots; 5.7 m/s)
Visibility: 12 miles (19 km)
Ceiling: at least 12,000 feet AGL
Clouds: few clouds at 1800 feet AGL
scattered clouds at 30000 feet AGL
Weather: no significant weather observed at this time

METAR text: PTYA 160250Z 05010KT 12SM FEW018 SCT300 32/24 A2992 RMK SLP134 8/101 T03150240 57017
Conditions at: PTYA (YAP ISLAND , FM) observed 0250 UTC 16 February 2019
Temperature: 31.5°C (89°F)
Dewpoint: 24.0°C (75°F) [RH = 65%]
Pressure (altimeter): 29.92 inches Hg (1013.3 mb)
[Sea-level pressure: 1013.4 mb]
Winds: from the NE (50 degrees) at 12 MPH (10 knots; 5.1 m/s)
Visibility: 12 miles (19 km)
Ceiling: at least 12,000 feet AGL
Clouds: few clouds at 1800 feet AGL
scattered clouds at 30000 feet AGL
Weather: no significant weather observed at this time

METAR text: PTYA 160150Z 06012KT 12SM FEW017 BKN300 31/24 A2995 RMK SLP142 T03090237
Conditions at: PTYA (YAP ISLAND , FM) observed 0150 UTC 16 February 2019
Temperature: 30.9°C (88°F)
Dewpoint: 23.7°C (75°F) [RH = 66%]
Pressure (altimeter): 29.95 inches Hg (1014.3 mb)
[Sea-level pressure: 1014.2 mb]
Winds: from the ENE (60 degrees) at 14 MPH (12 knots; 6.2 m/s)
Visibility: 12 miles (19 km)
Ceiling: 30000 feet AGL
Clouds: few clouds at 1700 feet AGL
broken clouds at 30000 feet AGL
Weather: no significant weather observed at this time

METAR text: PTYA 160050Z 07008KT 12SM FEW016 BKN300 30/24 A2997 RMK SLP149 T03040243
Conditions at: PTYA (YAP ISLAND , FM) observed 0050 UTC 16 February 2019
Temperature: 30.4°C (87°F)
Dewpoint: 24.3°C (76°F) [RH = 70%]
Pressure (altimeter): 29.97 inches Hg (1015.0 mb)
[Sea-level pressure: 1014.9 mb]
Winds: from the ENE (70 degrees) at 9 MPH (8 knots; 4.1 m/s)
Visibility: 12 miles (19 km)
Ceiling: 30000 feet AGL
Clouds: few clouds at 1600 feet AGL
broken clouds at 30000 feet AGL
Weather: no significant weather observed at this time

METAR text: PTYA 152350Z 05011KT 12SM FEW016 BKN300 29/24 A2997 RMK SLP151 8/101 T02910239 10291 20266 52014
Conditions at: PTYA (YAP ISLAND , FM) observed 2350 UTC 15 February 2019
Temperature: 29.1°C (84°F)
Dewpoint: 23.9°C (75°F) [RH = 74%]
Pressure (altimeter): 29.97 inches Hg (1015.0 mb)
[Sea-level pressure: 1015.1 mb]
Winds: from the NE (50 degrees) at 13 MPH (11 knots; 5.7 m/s)
Visibility: 12 miles (19 km)
Ceiling: 30000 feet AGL
Clouds: few clouds at 1600 feet AGL
broken clouds at 30000 feet AGL
Weather: no significant weather observed at this time

METAR text: PTYA 152250Z VRB06KT 12SM FEW016 BKN300 29/24 A2996 RMK SLP147 T02870242
Conditions at: PTYA (YAP ISLAND , FM) observed 2250 UTC 15 February 2019
Temperature: 28.7°C (84°F)
Dewpoint: 24.2°C (76°F) [RH = 77%]
Pressure (altimeter): 29.96 inches Hg (1014.6 mb)
[Sea-level pressure: 1014.7 mb]
Winds: variable direction winds at 7 MPH (6 knots; 3.1 m/s)
Visibility: 12 miles (19 km)
Ceiling: 30000 feet AGL
Clouds: few clouds at 1600 feet AGL
broken clouds at 30000 feet AGL
Weather: no significant weather observed at this time

METAR text: PTYA 152158Z VRB06KT 12SM FEW016 BKN300 27/23 A2995 RMK SLP144 T02700231
Conditions at: PTYA (YAP ISLAND , FM) observed 2158 UTC 15 February 2019
Temperature: 27.0°C (81°F)
Dewpoint: 23.1°C (74°F) [RH = 79%]
Pressure (altimeter): 29.95 inches Hg (1014.3 mb)
[Sea-level pressure: 1014.4 mb]
Winds: variable direction winds at 7 MPH (6 knots; 3.1 m/s)
Visibility: 12 miles (19 km)
Ceiling: 30000 feet AGL
Clouds: few clouds at 1600 feet AGL
broken clouds at 30000 feet AGL
Weather: no significant weather observed at this time

METAR text: PTYA 152053Z VRB04KT 12SM FEW016 SCT300 27/23 A2993 RMK SLP137 8/101 T02660230 52010
Conditions at: PTYA (YAP ISLAND , FM) observed 2053 UTC 15 February 2019
Temperature: 26.6°C (80°F)
Dewpoint: 23.0°C (73°F) [RH = 81%]
Pressure (altimeter): 29.93 inches Hg (1013.6 mb)
[Sea-level pressure: 1013.7 mb]
Winds: variable direction winds at 5 MPH (4 knots; 2.1 m/s)
Visibility: 12 miles (19 km)
Ceiling: at least 12,000 feet AGL
Clouds: few clouds at 1600 feet AGL
scattered clouds at 30000 feet AGL
Weather: no significant weather observed at this time

METAR text: PTYA 151954Z 05007KT 12SM FEW016 BKN300 27/23 A2991 RMK SLP129 T02670229
Conditions at: PTYA (YAP ISLAND , FM) observed 1954 UTC 15 February 2019
Temperature: 26.7°C (80°F)
Dewpoint: 22.9°C (73°F) [RH = 80%]
Pressure (altimeter): 29.91 inches Hg (1013.0 mb)
[Sea-level pressure: 1012.9 mb]
Winds: from the NE (50 degrees) at 8 MPH (7 knots; 3.6 m/s)
Visibility: 12 miles (19 km)
Ceiling: 30000 feet AGL
Clouds: few clouds at 1600 feet AGL
broken clouds at 30000 feet AGL
Weather: no significant weather observed at this time

METAR text: PTYA 151851Z VRB06KT 12SM FEW016 BKN300 27/24 A2990 RMK SLP125 T02670236
Conditions at: PTYA (YAP ISLAND , FM) observed 1851 UTC 15 February 2019
Temperature: 26.7°C (80°F)
Dewpoint: 23.6°C (74°F) [RH = 83%]
Pressure (altimeter): 29.90 inches Hg (1012.6 mb)
[Sea-level pressure: 1012.5 mb]
Winds: variable direction winds at 7 MPH (6 knots; 3.1 m/s)
Visibility: 12 miles (19 km)
Ceiling: 30000 feet AGL
Clouds: few clouds at 1600 feet AGL
broken clouds at 30000 feet AGL
Weather: no significant weather observed at this time

METAR text: PTYA 151753Z 05007KT 12SM FEW016 BKN300 27/24 A2990 RMK SLP127 8/101 T02680236 10272 20264 57015
Conditions at: PTYA (YAP ISLAND , FM) observed 1753 UTC 15 February 2019
Temperature: 26.8°C (80°F)
Dewpoint: 23.6°C (74°F) [RH = 83%]
Pressure (altimeter): 29.90 inches Hg (1012.6 mb)
[Sea-level pressure: 1012.7 mb]
Winds: from the NE (50 degrees) at 8 MPH (7 knots; 3.6 m/s)
Visibility: 12 miles (19 km)
Ceiling: 30000 feet AGL
Clouds: few clouds at 1600 feet AGL
broken clouds at 30000 feet AGL
Weather: no significant weather observed at this time

METAR text: PTYA 151652Z VRB06KT 12SM FEW016 SCT300 27/23 A2992 RMK SLP132 T02680232
Conditions at: PTYA (YAP ISLAND , FM) observed 1652 UTC 15 February 2019
Temperature: 26.8°C (80°F)
Dewpoint: 23.2°C (74°F) [RH = 81%]
Pressure (altimeter): 29.92 inches Hg (1013.3 mb)
[Sea-level pressure: 1013.2 mb]
Winds: variable direction winds at 7 MPH (6 knots; 3.1 m/s)
Visibility: 12 miles (19 km)
Ceiling: at least 12,000 feet AGL
Clouds: few clouds at 1600 feet AGL
scattered clouds at 30000 feet AGL
Weather: no significant weather observed at this time

METAR text: PTYA 151550Z VRB06KT 12SM SCT016 BKN300 27/23 A2994 RMK SLP139 T02720234
Conditions at: PTYA (YAP ISLAND , FM) observed 1550 UTC 15 February 2019
Temperature: 27.2°C (81°F)
Dewpoint: 23.4°C (74°F) [RH = 80%]
Pressure (altimeter): 29.94 inches Hg (1014.0 mb)
[Sea-level pressure: 1013.9 mb]
Winds: variable direction winds at 7 MPH (6 knots; 3.1 m/s)
Visibility: 12 miles (19 km)
Ceiling: 30000 feet AGL
Clouds: scattered clouds at 1600 feet AGL
broken clouds at 30000 feet AGL
Weather: no significant weather observed at this time

METAR text: PTYA 151450Z VRB06KT 12SM FEW016 BKN300 27/23 A2995 RMK MDT CU E SLP142 8/201 T02680226 403060253 58003
Conditions at: PTYA (YAP ISLAND , FM) observed 1450 UTC 15 February 2019
Temperature: 26.8°C (80°F)
Dewpoint: 22.6°C (73°F) [RH = 78%]
Pressure (altimeter): 29.95 inches Hg (1014.3 mb)
[Sea-level pressure: 1014.2 mb]
Winds: variable direction winds at 7 MPH (6 knots; 3.1 m/s)
Visibility: 12 miles (19 km)
Ceiling: 30000 feet AGL
Clouds: few clouds at 1600 feet AGL
broken clouds at 30000 feet AGL
Weather: no significant weather observed at this time

METAR text: PTYA 151350Z VRB06KT 12SM FEW017 SCT300 26/22 A2996 RMK SLP147 T02640221
Conditions at: PTYA (YAP ISLAND , FM) observed 1350 UTC 15 February 2019
Temperature: 26.4°C (80°F)
Dewpoint: 22.1°C (72°F) [RH = 77%]
Pressure (altimeter): 29.96 inches Hg (1014.6 mb)
[Sea-level pressure: 1014.7 mb]
Winds: variable direction winds at 7 MPH (6 knots; 3.1 m/s)
Visibility: 12 miles (19 km)
Ceiling: at least 12,000 feet AGL
Clouds: few clouds at 1700 feet AGL
scattered clouds at 30000 feet AGL
Weather: no significant weather observed at this time

METAR text: PTYA 151250Z VRB05KT 12SM FEW017 SCT300 27/22 A2996 RMK SLP147 T02660218
Conditions at: PTYA (YAP ISLAND , FM) observed 1250 UTC 15 February 2019
Temperature: 26.6°C (80°F)
Dewpoint: 21.8°C (71°F) [RH = 75%]
Pressure (altimeter): 29.96 inches Hg (1014.6 mb)
[Sea-level pressure: 1014.7 mb]
Winds: variable direction winds at 6 MPH (5 knots; 2.6 m/s)
Visibility: 12 miles (19 km)
Ceiling: at least 12,000 feet AGL
Clouds: few clouds at 1700 feet AGL
scattered clouds at 30000 feet AGL
Weather: no significant weather observed at this time

METAR text: PTYA 151150Z 07010KT 12SM FEW017 SCT300 27/22 A2996 RMK SLP145 70007 8/101 T02670218 10301 20267 52012
Conditions at: PTYA (YAP ISLAND , FM) observed 1150 UTC 15 February 2019
Temperature: 26.7°C (80°F)
Dewpoint: 21.8°C (71°F) [RH = 75%]
Pressure (altimeter): 29.96 inches Hg (1014.6 mb)
[Sea-level pressure: 1014.5 mb]
Winds: from the ENE (70 degrees) at 12 MPH (10 knots; 5.1 m/s)
Visibility: 12 miles (19 km)
Ceiling: at least 12,000 feet AGL
Clouds: few clouds at 1700 feet AGL
scattered clouds at 30000 feet AGL
Weather: no significant weather observed at this time

METAR text: PTYA 151050Z 07008KT 12SM FEW017 SCT300 27/22 A2995 RMK SLP144 T02700215
Conditions at: PTYA (YAP ISLAND , FM) observed 1050 UTC 15 February 2019
Temperature: 27.0°C (81°F)
Dewpoint: 21.5°C (71°F) [RH = 72%]
Pressure (altimeter): 29.95 inches Hg (1014.3 mb)
[Sea-level pressure: 1014.4 mb]
Winds: from the ENE (70 degrees) at 9 MPH (8 knots; 4.1 m/s)
Visibility: 12 miles (19 km)
Ceiling: at least 12,000 feet AGL
Clouds: few clouds at 1700 feet AGL
scattered clouds at 30000 feet AGL
Weather: no significant weather observed at this time

METAR text: PTYA 150950Z 06011KT 12SM FEW017 SCT300 27/21 A2994 RMK SLP139 T02740214
Conditions at: PTYA (YAP ISLAND , FM) observed 0950 UTC 15 February 2019
Temperature: 27.4°C (81°F)
Dewpoint: 21.4°C (71°F) [RH = 70%]
Pressure (altimeter): 29.94 inches Hg (1014.0 mb)
[Sea-level pressure: 1013.9 mb]
Winds: from the ENE (60 degrees) at 13 MPH (11 knots; 5.7 m/s)
Visibility: 12 miles (19 km)
Ceiling: at least 12,000 feet AGL
Clouds: few clouds at 1700 feet AGL
scattered clouds at 30000 feet AGL
Weather: no significant weather observed at this time

Forecast for: PTYA (YAP ISLAND , FM)
Text: PTYA 161724Z 1618/1718 04011KT P6SM VCSH FEW018 SCT050
Forecast period: 1800 UTC 16 February 2019 to 1800 UTC 17 February 2019
Forecast type: FROM: standard forecast or significant change
Winds: from the NE (40 degrees) at 13 MPH (11 knots; 5.7 m/s)
Visibility: 6 or more miles 10+ km)
Ceiling: at least 12,000 feet AGL
Clouds: few clouds at 1800 feet AGL
scattered clouds at 5000 feet AGL
Weather: VCSH  (showers in vicinity)